sensor_id;sensor_type;location;lat;lon;timestamp;temperature;humidity
33803;DHT22;20110;53.120;5.786;2022-10-13T00:00:45;8.70;99.90
33803;DHT22;20110;53.120;5.786;2022-10-13T00:03:12;8.70;99.90
33803;DHT22;20110;53.120;5.786;2022-10-13T00:05:44;8.70;99.90
33803;DHT22;20110;53.120;5.786;2022-10-13T00:08:13;8.70;99.90
33803;DHT22;20110;53.120;5.786;2022-10-13T00:10:43;8.70;99.90
33803;DHT22;20110;53.120;5.786;2022-10-13T00:13:10;8.70;99.90
33803;DHT22;20110;53.120;5.786;2022-10-13T00:15:41;8.70;99.90
33803;DHT22;20110;53.120;5.786;2022-10-13T00:18:09;8.70;99.90
33803;DHT22;20110;53.120;5.786;2022-10-13T00:20:40;8.70;99.90
33803;DHT22;20110;53.120;5.786;2022-10-13T00:23:13;8.80;99.90
33803;DHT22;20110;53.120;5.786;2022-10-13T00:25:45;8.90;99.90
33803;DHT22;20110;53.120;5.786;2022-10-13T00:28:13;8.90;99.90
33803;DHT22;20110;53.120;5.786;2022-10-13T00:30:41;8.90;99.90
33803;DHT22;20110;53.120;5.786;2022-10-13T00:33:08;8.90;99.90
33803;DHT22;20110;53.120;5.786;2022-10-13T00:35:43;8.90;99.90
33803;DHT22;20110;53.120;5.786;2022-10-13T00:38:11;8.90;99.90
33803;DHT22;20110;53.120;5.786;2022-10-13T00:40:54;8.90;99.90
33803;DHT22;20110;53.120;5.786;2022-10-13T00:43:22;9.00;99.90
33803;DHT22;20110;53.120;5.786;2022-10-13T00:45:50;8.90;99.90
33803;DHT22;20110;53.120;5.786;2022-10-13T00:48:23;8.90;99.90
33803;DHT22;20110;53.120;5.786;2022-10-13T00:50:52;9.00;99.90
33803;DHT22;20110;53.120;5.786;2022-10-13T00:53:22;8.90;99.90
33803;DHT22;20110;53.120;5.786;2022-10-13T00:55:51;8.90;99.90
33803;DHT22;20110;53.120;5.786;2022-10-13T00:58:20;8.80;99.90
33803;DHT22;20110;53.120;5.786;2022-10-13T01:00:51;8.80;99.90
33803;DHT22;20110;53.120;5.786;2022-10-13T01:03:18;8.70;99.90
33803;DHT22;20110;53.120;5.786;2022-10-13T01:05:46;8.70;99.90
33803;DHT22;20110;53.120;5.786;2022-10-13T01:08:14;8.80;99.90
33803;DHT22;20110;53.120;5.786;2022-10-13T01:13:58;8.80;99.90
33803;DHT22;20110;53.120;5.786;2022-10-13T01:28:32;8.80;99.90
33803;DHT22;20110;53.120;5.786;2022-10-13T01:39:39;8.80;99.90
33803;DHT22;20110;53.120;5.786;2022-10-13T01:42:16;8.70;99.90
33803;DHT22;20110;53.120;5.786;2022-10-13T01:44:53;8.80;99.90
33803;DHT22;20110;53.120;5.786;2022-10-13T01:47:25;8.70;99.90
33803;DHT22;20110;53.120;5.786;2022-10-13T01:49:53;8.70;99.90
33803;DHT22;20110;53.120;5.786;2022-10-13T01:52:24;8.70;99.90
33803;DHT22;20110;53.120;5.786;2022-10-13T01:54:55;8.80;99.90
33803;DHT22;20110;53.120;5.786;2022-10-13T01:57:44;8.80;99.90
33803;DHT22;20110;53.120;5.786;2022-10-13T02:00:15;8.80;99.90
33803;DHT22;20110;53.120;5.786;2022-10-13T02:08:31;8.80;99.90
33803;DHT22;20110;53.120;5.786;2022-10-13T02:11:08;8.80;99.90
33803;DHT22;20110;53.120;5.786;2022-10-13T02:14:06;8.80;99.90
33803;DHT22;20110;53.120;5.786;2022-10-13T02:16:41;8.80;99.90
33803;DHT22;20110;53.120;5.786;2022-10-13T02:19:14;8.70;99.90
33803;DHT22;20110;53.120;5.786;2022-10-13T02:21:43;8.80;99.90
33803;DHT22;20110;53.120;5.786;2022-10-13T02:24:11;8.80;99.90
33803;DHT22;20110;53.120;5.786;2022-10-13T02:26:38;8.80;99.90
33803;DHT22;20110;53.120;5.786;2022-10-13T02:29:13;8.80;99.90
33803;DHT22;20110;53.120;5.786;2022-10-13T02:31:41;8.90;99.90
33803;DHT22;20110;53.120;5.786;2022-10-13T02:34:08;8.80;99.90
33803;DHT22;20110;53.120;5.786;2022-10-13T02:36:35;8.90;99.90
33803;DHT22;20110;53.120;5.786;2022-10-13T02:39:06;8.90;99.90
33803;DHT22;20110;53.120;5.786;2022-10-13T02:41:33;8.80;99.90
33803;DHT22;20110;53.120;5.786;2022-10-13T02:43:58;8.80;99.90
33803;DHT22;20110;53.120;5.786;2022-10-13T02:46:24;8.80;99.90
33803;DHT22;20110;53.120;5.786;2022-10-13T02:48:51;8.80;99.90
33803;DHT22;20110;53.120;5.786;2022-10-13T02:51:17;8.90;99.90
33803;DHT22;20110;53.120;5.786;2022-10-13T02:53:43;8.90;99.90
33803;DHT22;20110;53.120;5.786;2022-10-13T02:56:09;8.90;99.90
33803;DHT22;20110;53.120;5.786;2022-10-13T02:58:35;9.00;99.90
33803;DHT22;20110;53.120;5.786;2022-10-13T03:01:06;8.90;99.90
33803;DHT22;20110;53.120;5.786;2022-10-13T03:03:33;9.00;99.90
33803;DHT22;20110;53.120;5.786;2022-10-13T03:05:59;9.00;99.90
33803;DHT22;20110;53.120;5.786;2022-10-13T03:08:26;9.00;99.90
33803;DHT22;20110;53.120;5.786;2022-10-13T03:10:51;8.90;99.90
33803;DHT22;20110;53.120;5.786;2022-10-13T03:13:17;8.90;99.90
33803;DHT22;20110;53.120;5.786;2022-10-13T03:15:44;8.80;99.90
33803;DHT22;20110;53.120;5.786;2022-10-13T03:18:10;8.90;99.90
33803;DHT22;20110;53.120;5.786;2022-10-13T03:20:36;8.90;99.90
33803;DHT22;20110;53.120;5.786;2022-10-13T03:23:02;8.90;99.90
33803;DHT22;20110;53.120;5.786;2022-10-13T03:25:27;8.90;99.90
33803;DHT22;20110;53.120;5.786;2022-10-13T03:27:56;9.00;99.90
33803;DHT22;20110;53.120;5.786;2022-10-13T03:30:22;9.00;99.90
33803;DHT22;20110;53.120;5.786;2022-10-13T03:32:48;9.00;99.90
33803;DHT22;20110;53.120;5.786;2022-10-13T03:35:13;9.00;99.90
33803;DHT22;20110;53.120;5.786;2022-10-13T03:37:39;9.00;99.90
33803;DHT22;20110;53.120;5.786;2022-10-13T03:40:06;9.10;99.90
33803;DHT22;20110;53.120;5.786;2022-10-13T03:42:35;9.00;99.90
33803;DHT22;20110;53.120;5.786;2022-10-13T03:45:02;9.00;99.90
33803;DHT22;20110;53.120;5.786;2022-10-13T03:47:29;9.10;99.90
33803;DHT22;20110;53.120;5.786;2022-10-13T03:49:55;9.10;99.90
33803;DHT22;20110;53.120;5.786;2022-10-13T03:52:22;9.10;99.90
33803;DHT22;20110;53.120;5.786;2022-10-13T03:54:48;9.10;99.90
33803;DHT22;20110;53.120;5.786;2022-10-13T03:57:14;9.00;99.90
33803;DHT22;20110;53.120;5.786;2022-10-13T03:59:40;9.00;99.90
33803;DHT22;20110;53.120;5.786;2022-10-13T04:02:06;9.00;99.90
33803;DHT22;20110;53.120;5.786;2022-10-13T04:04:33;9.00;99.90
33803;DHT22;20110;53.120;5.786;2022-10-13T04:07:00;9.00;99.90
33803;DHT22;20110;53.120;5.786;2022-10-13T04:09:26;9.00;99.90
33803;DHT22;20110;53.120;5.786;2022-10-13T04:11:52;9.00;99.90
33803;DHT22;20110;53.120;5.786;2022-10-13T04:14:18;9.00;99.90
33803;DHT22;20110;53.120;5.786;2022-10-13T04:16:45;9.00;99.90
33803;DHT22;20110;53.120;5.786;2022-10-13T04:19:13;9.00;99.90
33803;DHT22;20110;53.120;5.786;2022-10-13T04:21:40;8.90;99.90
33803;DHT22;20110;53.120;5.786;2022-10-13T04:24:08;9.00;99.90
33803;DHT22;20110;53.120;5.786;2022-10-13T04:26:36;8.90;99.90
33803;DHT22;20110;53.120;5.786;2022-10-13T04:29:03;8.80;99.90
33803;DHT22;20110;53.120;5.786;2022-10-13T04:31:30;8.60;99.90
33803;DHT22;20110;53.120;5.786;2022-10-13T04:33:57;8.60;99.90
33803;DHT22;20110;53.120;5.786;2022-10-13T04:36:24;8.50;99.90
33803;DHT22;20110;53.120;5.786;2022-10-13T04:38:50;8.50;99.90
33803;DHT22;20110;53.120;5.786;2022-10-13T04:41:17;8.60;99.90
33803;DHT22;20110;53.120;5.786;2022-10-13T04:43:47;8.40;99.90
33803;DHT22;20110;53.120;5.786;2022-10-13T04:46:17;8.50;99.90
33803;DHT22;20110;53.120;5.786;2022-10-13T04:48:48;8.70;99.90
33803;DHT22;20110;53.120;5.786;2022-10-13T04:51:16;8.70;99.90
33803;DHT22;20110;53.120;5.786;2022-10-13T04:53:44;8.80;99.90
33803;DHT22;20110;53.120;5.786;2022-10-13T04:56:13;8.80;99.90
33803;DHT22;20110;53.120;5.786;2022-10-13T04:58:41;8.80;99.90
33803;DHT22;20110;53.120;5.786;2022-10-13T05:01:16;8.90;99.90
33803;DHT22;20110;53.120;5.786;2022-10-13T05:03:44;8.90;99.90
33803;DHT22;20110;53.120;5.786;2022-10-13T05:06:19;8.80;99.90
33803;DHT22;20110;53.120;5.786;2022-10-13T05:08:46;8.80;99.90
33803;DHT22;20110;53.120;5.786;2022-10-13T05:11:12;8.90;99.90
33803;DHT22;20110;53.120;5.786;2022-10-13T05:13:38;8.80;99.90
33803;DHT22;20110;53.120;5.786;2022-10-13T05:16:11;8.80;99.90
33803;DHT22;20110;53.120;5.786;2022-10-13T05:18:38;8.80;99.90
33803;DHT22;20110;53.120;5.786;2022-10-13T05:21:09;8.80;99.90
33803;DHT22;20110;53.120;5.786;2022-10-13T05:23:46;8.80;99.90
33803;DHT22;20110;53.120;5.786;2022-10-13T05:26:15;8.90;99.90
33803;DHT22;20110;53.120;5.786;2022-10-13T05:28:42;8.90;99.90
33803;DHT22;20110;53.120;5.786;2022-10-13T05:31:10;8.90;99.90
33803;DHT22;20110;53.120;5.786;2022-10-13T05:33:36;8.90;99.90
33803;DHT22;20110;53.120;5.786;2022-10-13T05:36:04;9.00;99.90
33803;DHT22;20110;53.120;5.786;2022-10-13T05:38:31;9.00;99.90
33803;DHT22;20110;53.120;5.786;2022-10-13T05:41:04;9.10;99.90
33803;DHT22;20110;53.120;5.786;2022-10-13T05:43:32;9.10;99.90
33803;DHT22;20110;53.120;5.786;2022-10-13T05:45:59;9.10;99.90
33803;DHT22;20110;53.120;5.786;2022-10-13T05:48:26;9.10;99.90
33803;DHT22;20110;53.120;5.786;2022-10-13T05:50:54;9.00;99.90
33803;DHT22;20110;53.120;5.786;2022-10-13T05:53:25;9.10;99.90
33803;DHT22;20110;53.120;5.786;2022-10-13T05:55:55;9.20;99.90
33803;DHT22;20110;53.120;5.786;2022-10-13T05:58:35;9.20;99.90
33803;DHT22;20110;53.120;5.786;2022-10-13T06:01:06;9.10;99.90
33803;DHT22;20110;53.120;5.786;2022-10-13T06:03:34;9.10;99.90
33803;DHT22;20110;53.120;5.786;2022-10-13T06:06:00;9.20;99.90
33803;DHT22;20110;53.120;5.786;2022-10-13T06:08:26;9.20;99.90
33803;DHT22;20110;53.120;5.786;2022-10-13T06:10:53;9.20;99.90
33803;DHT22;20110;53.120;5.786;2022-10-13T06:13:19;9.20;99.90
33803;DHT22;20110;53.120;5.786;2022-10-13T06:15:45;9.30;99.90
33803;DHT22;20110;53.120;5.786;2022-10-13T06:18:11;9.20;99.90
33803;DHT22;20110;53.120;5.786;2022-10-13T06:20:37;9.30;99.90
33803;DHT22;20110;53.120;5.786;2022-10-13T06:23:03;9.40;99.90
33803;DHT22;20110;53.120;5.786;2022-10-13T06:25:29;9.30;99.90
33803;DHT22;20110;53.120;5.786;2022-10-13T06:27:58;9.30;99.90
33803;DHT22;20110;53.120;5.786;2022-10-13T06:30:25;9.40;99.90
33803;DHT22;20110;53.120;5.786;2022-10-13T06:32:54;9.40;99.90
33803;DHT22;20110;53.120;5.786;2022-10-13T06:35:22;9.40;99.90
33803;DHT22;20110;53.120;5.786;2022-10-13T06:37:48;9.50;99.90
33803;DHT22;20110;53.120;5.786;2022-10-13T06:40:14;9.50;99.90
33803;DHT22;20110;53.120;5.786;2022-10-13T06:42:41;9.60;99.90
33803;DHT22;20110;53.120;5.786;2022-10-13T06:45:07;9.60;99.90
33803;DHT22;20110;53.120;5.786;2022-10-13T06:47:33;9.60;99.90
33803;DHT22;20110;53.120;5.786;2022-10-13T06:49:59;9.60;99.90
33803;DHT22;20110;53.120;5.786;2022-10-13T06:52:25;9.70;99.90
33803;DHT22;20110;53.120;5.786;2022-10-13T06:54:50;9.70;99.90
33803;DHT22;20110;53.120;5.786;2022-10-13T06:57:16;9.80;99.90
33803;DHT22;20110;53.120;5.786;2022-10-13T06:59:42;9.80;99.90
33803;DHT22;20110;53.120;5.786;2022-10-13T07:02:09;9.90;99.90
33803;DHT22;20110;53.120;5.786;2022-10-13T07:04:35;10.00;99.90
33803;DHT22;20110;53.120;5.786;2022-10-13T07:07:01;10.00;99.90
33803;DHT22;20110;53.120;5.786;2022-10-13T07:09:27;10.10;99.90
33803;DHT22;20110;53.120;5.786;2022-10-13T07:11:53;10.00;99.90
33803;DHT22;20110;53.120;5.786;2022-10-13T07:14:19;10.10;99.90
33803;DHT22;20110;53.120;5.786;2022-10-13T07:16:47;10.10;99.90
33803;DHT22;20110;53.120;5.786;2022-10-13T07:19:13;10.20;99.90
33803;DHT22;20110;53.120;5.786;2022-10-13T07:21:39;10.20;99.90
33803;DHT22;20110;53.120;5.786;2022-10-13T07:24:05;10.20;99.90
33803;DHT22;20110;53.120;5.786;2022-10-13T07:26:32;10.20;99.90
33803;DHT22;20110;53.120;5.786;2022-10-13T07:28:58;10.30;99.90
33803;DHT22;20110;53.120;5.786;2022-10-13T07:31:24;10.30;99.90
33803;DHT22;20110;53.120;5.786;2022-10-13T07:33:51;10.30;99.90
33803;DHT22;20110;53.120;5.786;2022-10-13T07:36:18;10.40;99.90
33803;DHT22;20110;53.120;5.786;2022-10-13T07:38:44;10.50;99.90
33803;DHT22;20110;53.120;5.786;2022-10-13T07:41:11;10.60;99.90
33803;DHT22;20110;53.120;5.786;2022-10-13T07:43:38;10.60;99.90
33803;DHT22;20110;53.120;5.786;2022-10-13T07:46:06;10.70;99.90
33803;DHT22;20110;53.120;5.786;2022-10-13T07:48:32;10.80;99.90
33803;DHT22;20110;53.120;5.786;2022-10-13T07:51:03;10.80;99.90
33803;DHT22;20110;53.120;5.786;2022-10-13T07:53:34;10.90;99.90
33803;DHT22;20110;53.120;5.786;2022-10-13T07:56:01;10.90;99.90
33803;DHT22;20110;53.120;5.786;2022-10-13T07:58:28;10.90;99.90
33803;DHT22;20110;53.120;5.786;2022-10-13T08:00:59;10.90;99.90
33803;DHT22;20110;53.120;5.786;2022-10-13T08:03:26;11.00;99.90
33803;DHT22;20110;53.120;5.786;2022-10-13T08:05:53;11.10;99.90
33803;DHT22;20110;53.120;5.786;2022-10-13T08:08:19;11.10;99.90
33803;DHT22;20110;53.120;5.786;2022-10-13T08:10:46;11.10;99.90
33803;DHT22;20110;53.120;5.786;2022-10-13T08:13:12;11.20;99.90
33803;DHT22;20110;53.120;5.786;2022-10-13T08:15:42;11.20;99.90
33803;DHT22;20110;53.120;5.786;2022-10-13T08:18:10;11.20;99.90
33803;DHT22;20110;53.120;5.786;2022-10-13T08:20:41;11.20;99.90
33803;DHT22;20110;53.120;5.786;2022-10-13T08:23:08;11.20;99.90
33803;DHT22;20110;53.120;5.786;2022-10-13T08:25:42;11.30;99.90
33803;DHT22;20110;53.120;5.786;2022-10-13T08:28:19;11.30;99.90
33803;DHT22;20110;53.120;5.786;2022-10-13T08:30:47;11.20;99.90
33803;DHT22;20110;53.120;5.786;2022-10-13T08:33:13;11.30;99.90
33803;DHT22;20110;53.120;5.786;2022-10-13T08:35:39;11.20;99.90
33803;DHT22;20110;53.120;5.786;2022-10-13T08:38:07;11.50;99.90
33803;DHT22;20110;53.120;5.786;2022-10-13T08:40:32;11.50;99.90
33803;DHT22;20110;53.120;5.786;2022-10-13T08:42:58;11.60;99.90
33803;DHT22;20110;53.120;5.786;2022-10-13T08:45:27;11.70;99.90
33803;DHT22;20110;53.120;5.786;2022-10-13T08:50:54;11.60;99.90
33803;DHT22;20110;53.120;5.786;2022-10-13T08:53:30;11.50;99.90
33803;DHT22;20110;53.120;5.786;2022-10-13T08:55:59;11.60;99.90
33803;DHT22;20110;53.120;5.786;2022-10-13T08:58:53;11.60;99.90
33803;DHT22;20110;53.120;5.786;2022-10-13T09:01:34;11.70;99.90
33803;DHT22;20110;53.120;5.786;2022-10-13T09:07:09;11.70;99.90
33803;DHT22;20110;53.120;5.786;2022-10-13T09:09:54;11.80;99.90
33803;DHT22;20110;53.120;5.786;2022-10-13T09:12:21;11.70;99.90
33803;DHT22;20110;53.120;5.786;2022-10-13T09:15:07;11.70;99.90
33803;DHT22;20110;53.120;5.786;2022-10-13T09:17:38;11.80;99.90
33803;DHT22;20110;53.120;5.786;2022-10-13T09:23:05;11.90;99.90
33803;DHT22;20110;53.120;5.786;2022-10-13T09:25:43;11.90;99.90
33803;DHT22;20110;53.120;5.786;2022-10-13T09:28:20;12.00;99.90
33803;DHT22;20110;53.120;5.786;2022-10-13T09:31:10;11.80;99.90
33803;DHT22;20110;53.120;5.786;2022-10-13T09:33:38;11.80;99.90
33803;DHT22;20110;53.120;5.786;2022-10-13T09:36:10;11.90;99.90
33803;DHT22;20110;53.120;5.786;2022-10-13T09:38:39;12.10;99.90
33803;DHT22;20110;53.120;5.786;2022-10-13T09:41:20;12.10;99.90
33803;DHT22;20110;53.120;5.786;2022-10-13T09:46:32;12.10;99.90
33803;DHT22;20110;53.120;5.786;2022-10-13T09:49:56;12.20;99.90
33803;DHT22;20110;53.120;5.786;2022-10-13T09:51:51;11.90;99.90
33803;DHT22;20110;53.120;5.786;2022-10-13T10:00:12;12.20;99.90
33803;DHT22;20110;53.120;5.786;2022-10-13T10:06:01;12.20;99.90
33803;DHT22;20110;53.120;5.786;2022-10-13T10:11:51;12.30;99.90
33803;DHT22;20110;53.120;5.786;2022-10-13T10:14:25;11.90;99.90
33803;DHT22;20110;53.120;5.786;2022-10-13T10:17:26;12.00;99.90
33803;DHT22;20110;53.120;5.786;2022-10-13T10:23:20;12.50;99.90
33803;DHT22;20110;53.120;5.786;2022-10-13T10:25:53;12.50;99.90
33803;DHT22;20110;53.120;5.786;2022-10-13T10:28:42;12.50;99.90
33803;DHT22;20110;53.120;5.786;2022-10-13T10:31:35;12.50;99.90
33803;DHT22;20110;53.120;5.786;2022-10-13T10:37:40;12.20;99.90
33803;DHT22;20110;53.120;5.786;2022-10-13T10:40:37;12.60;99.90
33803;DHT22;20110;53.120;5.786;2022-10-13T10:43:37;12.70;99.90
33803;DHT22;20110;53.120;5.786;2022-10-13T10:46:24;12.70;99.90
33803;DHT22;20110;53.120;5.786;2022-10-13T10:49:03;12.80;99.90
33803;DHT22;20110;53.120;5.786;2022-10-13T10:51:38;12.90;99.90
33803;DHT22;20110;53.120;5.786;2022-10-13T10:54:18;12.60;99.90
33803;DHT22;20110;53.120;5.786;2022-10-13T11:00:03;12.80;99.90
33803;DHT22;20110;53.120;5.786;2022-10-13T11:14:22;13.00;99.90
33803;DHT22;20110;53.120;5.786;2022-10-13T11:17:00;12.50;99.90
33803;DHT22;20110;53.120;5.786;2022-10-13T11:19:38;12.30;99.90
33803;DHT22;20110;53.120;5.786;2022-10-13T11:43:24;13.30;99.90
33803;DHT22;20110;53.120;5.786;2022-10-13T11:47:01;13.40;99.90
33803;DHT22;20110;53.120;5.786;2022-10-13T11:50:21;13.50;99.90
33803;DHT22;20110;53.120;5.786;2022-10-13T11:53:15;13.50;99.90
33803;DHT22;20110;53.120;5.786;2022-10-13T11:55:50;13.20;99.90
33803;DHT22;20110;53.120;5.786;2022-10-13T11:58:31;12.70;99.90
33803;DHT22;20110;53.120;5.786;2022-10-13T12:01:06;13.00;99.90
33803;DHT22;20110;53.120;5.786;2022-10-13T12:03:40;13.10;99.90
33803;DHT22;20110;53.120;5.786;2022-10-13T12:09:17;13.30;99.90
33803;DHT22;20110;53.120;5.786;2022-10-13T12:11:45;13.20;99.90
33803;DHT22;20110;53.120;5.786;2022-10-13T12:14:30;13.30;99.90
33803;DHT22;20110;53.120;5.786;2022-10-13T12:19:53;13.30;99.90
33803;DHT22;20110;53.120;5.786;2022-10-13T12:22:22;13.30;99.90
33803;DHT22;20110;53.120;5.786;2022-10-13T12:24:59;13.30;99.90
33803;DHT22;20110;53.120;5.786;2022-10-13T12:27:27;13.40;99.90
33803;DHT22;20110;53.120;5.786;2022-10-13T12:30:00;13.40;99.90
33803;DHT22;20110;53.120;5.786;2022-10-13T12:32:32;13.40;99.90
33803;DHT22;20110;53.120;5.786;2022-10-13T12:35:16;13.30;99.90
33803;DHT22;20110;53.120;5.786;2022-10-13T12:37:44;12.90;99.90
33803;DHT22;20110;53.120;5.786;2022-10-13T12:40:14;12.90;99.90
33803;DHT22;20110;53.120;5.786;2022-10-13T12:42:42;12.70;99.90
33803;DHT22;20110;53.120;5.786;2022-10-13T12:45:20;13.30;99.90
33803;DHT22;20110;53.120;5.786;2022-10-13T12:47:49;13.80;99.90
33803;DHT22;20110;53.120;5.786;2022-10-13T12:53:14;14.10;99.90
33803;DHT22;20110;53.120;5.786;2022-10-13T12:56:02;14.00;99.90
33803;DHT22;20110;53.120;5.786;2022-10-13T12:58:29;14.20;99.90
33803;DHT22;20110;53.120;5.786;2022-10-13T13:03:39;14.40;99.90
33803;DHT22;20110;53.120;5.786;2022-10-13T13:06:20;14.40;99.90
33803;DHT22;20110;53.120;5.786;2022-10-13T13:11:47;14.40;99.90
33803;DHT22;20110;53.120;5.786;2022-10-13T13:14:42;14.10;99.90
33803;DHT22;20110;53.120;5.786;2022-10-13T13:19:44;14.20;99.90
33803;DHT22;20110;53.120;5.786;2022-10-13T13:22:17;14.40;99.90
33803;DHT22;20110;53.120;5.786;2022-10-13T13:24:43;14.20;99.90
33803;DHT22;20110;53.120;5.786;2022-10-13T13:27:25;14.00;99.90
33803;DHT22;20110;53.120;5.786;2022-10-13T13:29:54;14.00;99.90
33803;DHT22;20110;53.120;5.786;2022-10-13T13:32:22;13.90;99.90
33803;DHT22;20110;53.120;5.786;2022-10-13T13:34:49;14.10;99.90
33803;DHT22;20110;53.120;5.786;2022-10-13T13:40:02;13.70;99.90
33803;DHT22;20110;53.120;5.786;2022-10-13T13:42:29;13.80;99.90
33803;DHT22;20110;53.120;5.786;2022-10-13T13:44:56;13.70;99.90
33803;DHT22;20110;53.120;5.786;2022-10-13T13:47:27;14.00;99.90
33803;DHT22;20110;53.120;5.786;2022-10-13T13:49:54;14.20;99.90
33803;DHT22;20110;53.120;5.786;2022-10-13T13:52:22;13.90;99.90
33803;DHT22;20110;53.120;5.786;2022-10-13T13:54:50;13.70;99.90
33803;DHT22;20110;53.120;5.786;2022-10-13T13:57:17;13.40;99.90
33803;DHT22;20110;53.120;5.786;2022-10-13T13:59:43;13.60;99.90
33803;DHT22;20110;53.120;5.786;2022-10-13T14:02:18;13.50;99.90
33803;DHT22;20110;53.120;5.786;2022-10-13T14:04:46;13.70;99.90
33803;DHT22;20110;53.120;5.786;2022-10-13T14:07:12;13.60;99.90
33803;DHT22;20110;53.120;5.786;2022-10-13T14:09:38;13.60;99.90
33803;DHT22;20110;53.120;5.786;2022-10-13T14:12:04;13.70;99.90
33803;DHT22;20110;53.120;5.786;2022-10-13T14:14:31;13.90;99.90
33803;DHT22;20110;53.120;5.786;2022-10-13T14:16:58;13.80;99.90
33803;DHT22;20110;53.120;5.786;2022-10-13T14:19:24;13.70;99.90
33803;DHT22;20110;53.120;5.786;2022-10-13T14:21:50;13.70;99.90
33803;DHT22;20110;53.120;5.786;2022-10-13T14:24:17;13.60;99.90
33803;DHT22;20110;53.120;5.786;2022-10-13T14:26:43;13.80;99.90
33803;DHT22;20110;53.120;5.786;2022-10-13T14:29:09;13.80;99.90
33803;DHT22;20110;53.120;5.786;2022-10-13T14:31:35;13.80;99.90
33803;DHT22;20110;53.120;5.786;2022-10-13T14:34:00;14.00;99.90
33803;DHT22;20110;53.120;5.786;2022-10-13T14:36:26;13.90;99.90
33803;DHT22;20110;53.120;5.786;2022-10-13T14:38:53;14.00;99.90
33803;DHT22;20110;53.120;5.786;2022-10-13T14:41:19;13.70;99.90
33803;DHT22;20110;53.120;5.786;2022-10-13T14:43:45;13.60;99.90
33803;DHT22;20110;53.120;5.786;2022-10-13T14:46:12;13.50;99.90
33803;DHT22;20110;53.120;5.786;2022-10-13T14:48:38;13.70;99.90
33803;DHT22;20110;53.120;5.786;2022-10-13T14:51:08;13.70;99.90
33803;DHT22;20110;53.120;5.786;2022-10-13T14:53:40;13.80;99.90
33803;DHT22;20110;53.120;5.786;2022-10-13T14:56:23;13.80;99.90
33803;DHT22;20110;53.120;5.786;2022-10-13T14:58:53;13.70;99.90
33803;DHT22;20110;53.120;5.786;2022-10-13T15:01:20;13.60;99.90
33803;DHT22;20110;53.120;5.786;2022-10-13T15:03:47;13.70;99.90
33803;DHT22;20110;53.120;5.786;2022-10-13T15:06:21;13.60;99.90
33803;DHT22;20110;53.120;5.786;2022-10-13T15:08:49;13.60;99.90
33803;DHT22;20110;53.120;5.786;2022-10-13T15:11:17;13.60;99.90
33803;DHT22;20110;53.120;5.786;2022-10-13T15:13:44;13.60;99.90
33803;DHT22;20110;53.120;5.786;2022-10-13T15:16:36;13.60;99.90
33803;DHT22;20110;53.120;5.786;2022-10-13T15:19:03;13.60;99.90
33803;DHT22;20110;53.120;5.786;2022-10-13T15:21:29;13.80;99.90
33803;DHT22;20110;53.120;5.786;2022-10-13T15:23:55;13.60;99.90
33803;DHT22;20110;53.120;5.786;2022-10-13T15:26:21;13.60;99.90
33803;DHT22;20110;53.120;5.786;2022-10-13T15:28:50;13.50;99.90
33803;DHT22;20110;53.120;5.786;2022-10-13T15:31:18;13.60;99.90
33803;DHT22;20110;53.120;5.786;2022-10-13T15:33:46;13.60;99.90
33803;DHT22;20110;53.120;5.786;2022-10-13T15:36:16;13.70;99.90
33803;DHT22;20110;53.120;5.786;2022-10-13T15:38:42;13.70;99.90
33803;DHT22;20110;53.120;5.786;2022-10-13T15:41:09;13.80;99.90
33803;DHT22;20110;53.120;5.786;2022-10-13T15:43:36;13.80;99.90
33803;DHT22;20110;53.120;5.786;2022-10-13T15:46:05;13.80;99.90
33803;DHT22;20110;53.120;5.786;2022-10-13T15:48:33;13.50;99.90
33803;DHT22;20110;53.120;5.786;2022-10-13T15:51:00;13.40;99.90
33803;DHT22;20110;53.120;5.786;2022-10-13T15:53:28;13.20;99.90
33803;DHT22;20110;53.120;5.786;2022-10-13T15:55:54;13.20;99.90
33803;DHT22;20110;53.120;5.786;2022-10-13T15:58:20;13.10;99.90
33803;DHT22;20110;53.120;5.786;2022-10-13T16:00:46;13.00;99.90
33803;DHT22;20110;53.120;5.786;2022-10-13T16:03:16;13.00;99.90
33803;DHT22;20110;53.120;5.786;2022-10-13T16:05:43;12.90;99.90
33803;DHT22;20110;53.120;5.786;2022-10-13T16:08:11;12.80;99.90
33803;DHT22;20110;53.120;5.786;2022-10-13T16:10:41;12.70;99.90
33803;DHT22;20110;53.120;5.786;2022-10-13T16:13:10;12.70;99.90
33803;DHT22;20110;53.120;5.786;2022-10-13T16:15:38;12.60;99.90
33803;DHT22;20110;53.120;5.786;2022-10-13T16:18:04;12.60;99.90
33803;DHT22;20110;53.120;5.786;2022-10-13T16:20:30;12.60;99.90
33803;DHT22;20110;53.120;5.786;2022-10-13T16:22:59;12.60;99.90
33803;DHT22;20110;53.120;5.786;2022-10-13T16:25:26;12.60;99.90
33803;DHT22;20110;53.120;5.786;2022-10-13T16:27:51;12.60;99.90
33803;DHT22;20110;53.120;5.786;2022-10-13T16:30:17;12.60;99.90
33803;DHT22;20110;53.120;5.786;2022-10-13T16:32:43;12.70;99.90
33803;DHT22;20110;53.120;5.786;2022-10-13T16:35:09;12.60;99.90
33803;DHT22;20110;53.120;5.786;2022-10-13T16:37:35;12.60;99.90
33803;DHT22;20110;53.120;5.786;2022-10-13T16:40:00;12.60;99.90
33803;DHT22;20110;53.120;5.786;2022-10-13T16:42:26;12.50;99.90
33803;DHT22;20110;53.120;5.786;2022-10-13T16:44:52;12.40;99.90
33803;DHT22;20110;53.120;5.786;2022-10-13T16:47:18;12.40;99.90
33803;DHT22;20110;53.120;5.786;2022-10-13T16:49:44;12.30;99.90
33803;DHT22;20110;53.120;5.786;2022-10-13T16:52:11;12.30;99.90
33803;DHT22;20110;53.120;5.786;2022-10-13T16:54:36;12.30;99.90
33803;DHT22;20110;53.120;5.786;2022-10-13T16:57:02;12.20;99.90
33803;DHT22;20110;53.120;5.786;2022-10-13T16:59:28;12.10;99.90
33803;DHT22;20110;53.120;5.786;2022-10-13T17:01:54;12.10;99.90
33803;DHT22;20110;53.120;5.786;2022-10-13T17:04:22;12.00;99.90
33803;DHT22;20110;53.120;5.786;2022-10-13T17:06:48;11.90;99.90
33803;DHT22;20110;53.120;5.786;2022-10-13T17:09:13;11.90;99.90
33803;DHT22;20110;53.120;5.786;2022-10-13T17:11:39;11.80;99.90
33803;DHT22;20110;53.120;5.786;2022-10-13T17:14:05;11.70;99.90
33803;DHT22;20110;53.120;5.786;2022-10-13T17:16:32;11.60;99.90
33803;DHT22;20110;53.120;5.786;2022-10-13T17:18:58;11.50;99.90
33803;DHT22;20110;53.120;5.786;2022-10-13T17:21:24;11.50;99.90
33803;DHT22;20110;53.120;5.786;2022-10-13T17:23:50;11.40;99.90
33803;DHT22;20110;53.120;5.786;2022-10-13T17:26:17;11.40;99.90
33803;DHT22;20110;53.120;5.786;2022-10-13T17:28:43;11.30;99.90
33803;DHT22;20110;53.120;5.786;2022-10-13T17:31:18;11.30;99.90
33803;DHT22;20110;53.120;5.786;2022-10-13T17:33:46;11.30;99.90
33803;DHT22;20110;53.120;5.786;2022-10-13T17:36:21;11.20;99.90
33803;DHT22;20110;53.120;5.786;2022-10-13T17:38:49;11.10;99.90
33803;DHT22;20110;53.120;5.786;2022-10-13T17:41:17;11.00;99.90
33803;DHT22;20110;53.120;5.786;2022-10-13T17:43:43;11.00;99.90
33803;DHT22;20110;53.120;5.786;2022-10-13T17:46:14;11.00;99.90
33803;DHT22;20110;53.120;5.786;2022-10-13T17:48:40;10.90;99.90
33803;DHT22;20110;53.120;5.786;2022-10-13T17:51:12;10.90;99.90